sensor_id;sensor_type;location;lat;lon;timestamp;pressure;altitude;pressure_sealevel;temperature;humidity
37386;BME280;49448;50.040;9.052;2022-09-20T00:00:49;100887.09;;;25.24;40.01
37386;BME280;49448;50.040;9.052;2022-09-20T00:03:16;100895.81;;;25.29;39.68
37386;BME280;49448;50.040;9.052;2022-09-20T00:05:43;100898.06;;;25.37;39.67
37386;BME280;49448;50.040;9.052;2022-09-20T00:08:15;100898.75;;;25.40;39.62
37386;BME280;49448;50.040;9.052;2022-09-20T00:10:40;100904.03;;;25.28;39.98
37386;BME280;49448;50.040;9.052;2022-09-20T00:13:11;100901.75;;;25.36;39.75
37386;BME280;49448;50.040;9.052;2022-09-20T00:15:44;100908.56;;;25.43;39.62
37386;BME280;49448;50.040;9.052;2022-09-20T00:18:10;100903.69;;;25.34;39.73
37386;BME280;49448;50.040;9.052;2022-09-20T00:20:36;100901.75;;;25.36;39.66
37386;BME280;49448;50.040;9.052;2022-09-20T00:23:08;100895.81;;;25.29;39.64
37386;BME280;49448;50.040;9.052;2022-09-20T00:25:33;100889.53;;;25.29;39.96
37386;BME280;49448;50.040;9.052;2022-09-20T00:27:58;100904.28;;;25.23;39.74
37386;BME280;49448;50.040;9.052;2022-09-20T00:30:24;100897.94;;;25.24;39.70
37386;BME280;49448;50.040;9.052;2022-09-20T00:32:49;100896.69;;;25.30;39.65
37386;BME280;49448;50.040;9.052;2022-09-20T00:35:14;100899.50;;;25.28;39.57
37386;BME280;49448;50.040;9.052;2022-09-20T00:37:41;100890.13;;;25.34;39.87
37386;BME280;49448;50.040;9.052;2022-09-20T00:40:11;100897.19;;;25.36;39.49
37386;BME280;49448;50.040;9.052;2022-09-20T00:42:37;100892.78;;;25.19;39.78
37386;BME280;49448;50.040;9.052;2022-09-20T00:47:48;100899.28;;;25.31;39.81
37386;BME280;49448;50.040;9.052;2022-09-20T00:50:27;100902.47;;;25.39;39.53
37386;BME280;49448;50.040;9.052;2022-09-20T00:53:10;100911.69;;;25.35;39.71
37386;BME280;49448;50.040;9.052;2022-09-20T00:55:40;100909.78;;;25.37;39.71
37386;BME280;49448;50.040;9.052;2022-09-20T00:58:07;100911.34;;;25.26;39.72
37386;BME280;49448;50.040;9.052;2022-09-20T01:00:33;100908.84;;;25.23;39.83
37386;BME280;49448;50.040;9.052;2022-09-20T01:03:02;100912.75;;;25.33;39.57
37386;BME280;49448;50.040;9.052;2022-09-20T01:05:30;100910.66;;;25.22;39.80
37386;BME280;49448;50.040;9.052;2022-09-20T01:07:56;100901.59;;;25.23;39.81
37386;BME280;49448;50.040;9.052;2022-09-20T01:10:22;100905.50;;;25.17;39.94
37386;BME280;49448;50.040;9.052;2022-09-20T01:12:49;100908.75;;;25.24;39.96
37386;BME280;49448;50.040;9.052;2022-09-20T01:15:16;100900.03;;;25.19;39.92
37386;BME280;49448;50.040;9.052;2022-09-20T01:17:46;100899.13;;;25.34;39.64
37386;BME280;49448;50.040;9.052;2022-09-20T01:20:27;100898.88;;;25.39;39.57
37386;BME280;49448;50.040;9.052;2022-09-20T01:23:19;100897.91;;;25.40;39.41
37386;BME280;49448;50.040;9.052;2022-09-20T01:28:32;100899.91;;;25.36;39.67
37386;BME280;49448;50.040;9.052;2022-09-20T01:31:07;100903.66;;;25.49;39.20
37386;BME280;49448;50.040;9.052;2022-09-20T01:33:43;100905.06;;;25.41;39.41
37386;BME280;49448;50.040;9.052;2022-09-20T01:36:19;100902.53;;;25.38;39.54
37386;BME280;49448;50.040;9.052;2022-09-20T01:39:11;100904.09;;;25.42;39.44
37386;BME280;49448;50.040;9.052;2022-09-20T01:41:48;100915.81;;;25.42;39.34
37386;BME280;49448;50.040;9.052;2022-09-20T01:44:37;100908.38;;;25.46;39.26
37386;BME280;49448;50.040;9.052;2022-09-20T01:49:56;100911.97;;;25.31;39.56
37386;BME280;49448;50.040;9.052;2022-09-20T01:58:39;100905.06;;;25.41;39.45
37386;BME280;49448;50.040;9.052;2022-09-20T02:01:52;100912.41;;;25.39;39.37
37386;BME280;49448;50.040;9.052;2022-09-20T02:12:52;100914.16;;;25.40;39.45
37386;BME280;49448;50.040;9.052;2022-09-20T02:18:46;100909.09;;;25.34;39.37
37386;BME280;49448;50.040;9.052;2022-09-20T02:21:29;100913.03;;;25.28;39.53
37386;BME280;49448;50.040;9.052;2022-09-20T02:24:22;100914.16;;;25.08;39.98
37386;BME280;49448;50.040;9.052;2022-09-20T02:27:25;100912.22;;;25.26;39.54
37386;BME280;49448;50.040;9.052;2022-09-20T02:30:11;100911.47;;;25.24;39.66
37386;BME280;49448;50.040;9.052;2022-09-20T02:35:40;100913.97;;;25.27;39.67
37386;BME280;49448;50.040;9.052;2022-09-20T02:41:11;100919.75;;;25.37;39.58
37386;BME280;49448;50.040;9.052;2022-09-20T02:47:06;100910.47;;;25.41;39.19
37386;BME280;49448;50.040;9.052;2022-09-20T02:49:50;100904.44;;;25.36;39.20
37386;BME280;49448;50.040;9.052;2022-09-20T02:57:52;100908.38;;;25.30;39.61
37386;BME280;49448;50.040;9.052;2022-09-20T03:00:22;100915.53;;;25.31;39.38
37386;BME280;49448;50.040;9.052;2022-09-20T03:05:57;100910.84;;;25.35;39.29
37386;BME280;49448;50.040;9.052;2022-09-20T03:08:46;100912.94;;;25.30;39.46
37386;BME280;49448;50.040;9.052;2022-09-20T03:11:36;100911.19;;;25.29;39.37
37386;BME280;49448;50.040;9.052;2022-09-20T03:14:17;100914.94;;;25.10;39.81
37386;BME280;49448;50.040;9.052;2022-09-20T03:17:05;100923.94;;;25.27;39.45
37386;BME280;49448;50.040;9.052;2022-09-20T03:25:42;100931.97;;;25.28;39.58
37386;BME280;49448;50.040;9.052;2022-09-20T03:31:32;100930.91;;;25.31;39.50
37386;BME280;49448;50.040;9.052;2022-09-20T03:42:18;100935.84;;;25.24;39.54
37386;BME280;49448;50.040;9.052;2022-09-20T03:59:05;100935.84;;;25.24;39.54
37386;BME280;49448;50.040;9.052;2022-09-20T04:10:10;100946.66;;;25.24;39.23
37386;BME280;49448;50.040;9.052;2022-09-20T04:18:52;100944.72;;;25.26;39.26
37386;BME280;49448;50.040;9.052;2022-09-20T04:22:12;100937.75;;;25.22;39.37
37386;BME280;49448;50.040;9.052;2022-09-20T04:24:41;100938.44;;;25.26;39.12
37386;BME280;49448;50.040;9.052;2022-09-20T04:27:30;100944.84;;;25.25;39.14
37386;BME280;49448;50.040;9.052;2022-09-20T04:30:23;100940.09;;;25.28;39.44
37386;BME280;49448;50.040;9.052;2022-09-20T04:33:16;100941.25;;;25.24;39.14
37386;BME280;49448;50.040;9.052;2022-09-20T04:36:08;100946.81;;;25.21;39.48
37386;BME280;49448;50.040;9.052;2022-09-20T04:39:22;100949.78;;;25.16;39.29
37386;BME280;49448;50.040;9.052;2022-09-20T04:48:00;100954.59;;;25.27;39.38
37386;BME280;49448;50.040;9.052;2022-09-20T04:50:52;100956.28;;;25.30;39.25
37386;BME280;49448;50.040;9.052;2022-09-20T04:53:43;100951.81;;;25.29;39.13
37386;BME280;49448;50.040;9.052;2022-09-20T04:56:32;100958.00;;;25.31;39.24
37386;BME280;49448;50.040;9.052;2022-09-20T04:59:07;100962.09;;;25.22;39.46
37386;BME280;49448;50.040;9.052;2022-09-20T05:10:20;100986.81;;;25.16;39.47
37386;BME280;49448;50.040;9.052;2022-09-20T05:13:14;100989.63;;;25.30;39.13
37386;BME280;49448;50.040;9.052;2022-09-20T05:16:07;100992.25;;;25.32;39.28
37386;BME280;49448;50.040;9.052;2022-09-20T05:29:55;100996.63;;;25.34;38.84
37386;BME280;49448;50.040;9.052;2022-09-20T05:35:29;100994.97;;;25.32;39.06
37386;BME280;49448;50.040;9.052;2022-09-20T05:41:03;101001.31;;;25.31;38.93
37386;BME280;49448;50.040;9.052;2022-09-20T05:43:34;101006.94;;;25.28;39.31
37386;BME280;49448;50.040;9.052;2022-09-20T05:46:49;101013.03;;;25.31;39.00
37386;BME280;49448;50.040;9.052;2022-09-20T05:49:22;101012.00;;;25.34;39.11
37386;BME280;49448;50.040;9.052;2022-09-20T05:52:04;101013.28;;;25.27;39.06
37386;BME280;49448;50.040;9.052;2022-09-20T05:55:27;101007.63;;;25.31;39.07
37386;BME280;49448;50.040;9.052;2022-09-20T06:01:07;101011.28;;;25.30;39.02
37386;BME280;49448;50.040;9.052;2022-09-20T06:03:47;101015.13;;;25.26;39.14
37386;BME280;49448;50.040;9.052;2022-09-20T06:09:28;101017.84;;;25.26;39.08
37386;BME280;49448;50.040;9.052;2022-09-20T06:12:30;101016.88;;;25.27;38.99
37386;BME280;49448;50.040;9.052;2022-09-20T06:15:24;101016.19;;;25.24;38.93
37386;BME280;49448;50.040;9.052;2022-09-20T06:17:58;101020.25;;;25.15;39.10
37386;BME280;49448;50.040;9.052;2022-09-20T06:20:35;101021.94;;;25.17;39.44
37386;BME280;49448;50.040;9.052;2022-09-20T06:23:04;101024.09;;;25.11;39.53
37386;BME280;49448;50.040;9.052;2022-09-20T06:30:38;101035.03;;;25.25;39.23
37386;BME280;49448;50.040;9.052;2022-09-20T06:35:36;101035.41;;;25.19;39.10
37386;BME280;49448;50.040;9.052;2022-09-20T06:41:10;101033.53;;;25.04;39.41
37386;BME280;49448;50.040;9.052;2022-09-20T06:43:53;101038.06;;;25.03;39.75
37386;BME280;49448;50.040;9.052;2022-09-20T06:46:19;101038.84;;;25.05;39.44
37386;BME280;49448;50.040;9.052;2022-09-20T06:48:44;101042.44;;;25.06;39.64
37386;BME280;49448;50.040;9.052;2022-09-20T06:51:10;101045.38;;;25.01;39.78
37386;BME280;49448;50.040;9.052;2022-09-20T06:53:38;101049.19;;;25.14;39.69
37386;BME280;49448;50.040;9.052;2022-09-20T06:56:07;101049.88;;;25.18;39.52
37386;BME280;49448;50.040;9.052;2022-09-20T06:58:33;101047.31;;;24.99;39.70
37386;BME280;49448;50.040;9.052;2022-09-20T07:00:58;101042.69;;;25.01;39.56
37386;BME280;49448;50.040;9.052;2022-09-20T07:03:24;101040.78;;;25.03;39.44
37386;BME280;49448;50.040;9.052;2022-09-20T07:05:49;101036.25;;;25.04;39.68
37386;BME280;49448;50.040;9.052;2022-09-20T07:08:15;101036.75;;;25.10;39.25
37386;BME280;49448;50.040;9.052;2022-09-20T07:10:40;101036.13;;;25.05;39.52
37386;BME280;49448;50.040;9.052;2022-09-20T07:13:09;101047.44;;;25.13;39.58
37386;BME280;49448;50.040;9.052;2022-09-20T07:15:35;101041.72;;;25.02;39.71
37386;BME280;49448;50.040;9.052;2022-09-20T07:18:00;101044.50;;;25.01;39.74
37386;BME280;49448;50.040;9.052;2022-09-20T07:20:26;101049.53;;;25.08;39.32
37386;BME280;49448;50.040;9.052;2022-09-20T07:22:51;101043.63;;;25.00;39.55
37386;BME280;49448;50.040;9.052;2022-09-20T07:25:18;101049.22;;;24.97;39.76
37386;BME280;49448;50.040;9.052;2022-09-20T07:27:44;101047.31;;;24.99;39.79
37386;BME280;49448;50.040;9.052;2022-09-20T07:30:11;101052.72;;;24.99;39.55
37386;BME280;49448;50.040;9.052;2022-09-20T07:32:37;101052.00;;;24.96;39.72
37386;BME280;49448;50.040;9.052;2022-09-20T07:35:07;101054.22;;;25.05;39.55
37386;BME280;49448;50.040;9.052;2022-09-20T07:37:32;101054.47;;;25.00;39.78
37386;BME280;49448;50.040;9.052;2022-09-20T07:39:58;101062.75;;;24.97;39.68
37386;BME280;49448;50.040;9.052;2022-09-20T07:42:23;101050.16;;;24.96;39.83
37386;BME280;49448;50.040;9.052;2022-09-20T07:44:49;101053.69;;;24.98;39.49
37386;BME280;49448;50.040;9.052;2022-09-20T07:47:14;101050.97;;;24.98;39.78
37386;BME280;49448;50.040;9.052;2022-09-20T07:49:40;101051.94;;;24.97;39.62
37386;BME280;49448;50.040;9.052;2022-09-20T07:52:05;101052.09;;;24.94;39.45
37386;BME280;49448;50.040;9.052;2022-09-20T07:54:31;101053.75;;;24.97;39.82
37386;BME280;49448;50.040;9.052;2022-09-20T07:56:57;101058.91;;;25.01;39.59
37386;BME280;49448;50.040;9.052;2022-09-20T07:59:23;101069.59;;;25.04;39.75
37386;BME280;49448;50.040;9.052;2022-09-20T08:01:48;101062.44;;;25.03;39.68
37386;BME280;49448;50.040;9.052;2022-09-20T08:04:14;101068.78;;;25.02;39.69
37386;BME280;49448;50.040;9.052;2022-09-20T08:06:42;101067.16;;;25.15;39.38
37386;BME280;49448;50.040;9.052;2022-09-20T08:09:08;101075.66;;;25.09;39.51
37386;BME280;49448;50.040;9.052;2022-09-20T08:11:34;101078.81;;;25.00;39.80
37386;BME280;49448;50.040;9.052;2022-09-20T08:14:01;101081.19;;;25.06;39.46
37386;BME280;49448;50.040;9.052;2022-09-20T08:16:28;101076.28;;;25.14;39.27
37386;BME280;49448;50.040;9.052;2022-09-20T08:18:56;101084.41;;;25.14;39.52
37386;BME280;49448;50.040;9.052;2022-09-20T08:21:23;101082.63;;;25.13;39.54
37386;BME280;49448;50.040;9.052;2022-09-20T08:23:48;101082.31;;;25.02;39.54
37386;BME280;49448;50.040;9.052;2022-09-20T08:26:18;101084.13;;;25.19;39.31
37386;BME280;49448;50.040;9.052;2022-09-20T08:28:45;101083.03;;;25.06;39.45
37386;BME280;49448;50.040;9.052;2022-09-20T08:31:18;101081.69;;;25.14;39.57
37386;BME280;49448;50.040;9.052;2022-09-20T08:33:45;101083.25;;;25.18;39.34
37386;BME280;49448;50.040;9.052;2022-09-20T08:36:13;101083.41;;;25.15;39.24
37386;BME280;49448;50.040;9.052;2022-09-20T08:38:39;101087.75;;;25.02;39.55
37386;BME280;49448;50.040;9.052;2022-09-20T08:41:18;101087.72;;;25.19;39.30
37386;BME280;49448;50.040;9.052;2022-09-20T08:43:56;101092.16;;;25.20;39.26
37386;BME280;49448;50.040;9.052;2022-09-20T08:46:47;101087.72;;;25.19;39.40
37386;BME280;49448;50.040;9.052;2022-09-20T08:49:23;101091.91;;;25.25;39.15
37386;BME280;49448;50.040;9.052;2022-09-20T08:51:50;101085.25;;;25.15;39.59
37386;BME280;49448;50.040;9.052;2022-09-20T08:54:16;101094.97;;;25.19;39.34
37386;BME280;49448;50.040;9.052;2022-09-20T08:56:42;101090.56;;;25.16;39.43
37386;BME280;49448;50.040;9.052;2022-09-20T08:59:14;101094.53;;;25.27;39.36
37386;BME280;49448;50.040;9.052;2022-09-20T09:01:40;101092.50;;;25.14;39.32
37386;BME280;49448;50.040;9.052;2022-09-20T09:06:38;101091.88;;;25.09;39.40
37386;BME280;49448;50.040;9.052;2022-09-20T09:09:04;101089.94;;;25.11;39.11
37386;BME280;49448;50.040;9.052;2022-09-20T09:11:30;101087.31;;;25.10;39.30
37386;BME280;49448;50.040;9.052;2022-09-20T09:13:59;101093.91;;;25.21;39.12
37386;BME280;49448;50.040;9.052;2022-09-20T09:16:28;101092.34;;;25.17;39.19
37386;BME280;49448;50.040;9.052;2022-09-20T09:18:55;101092.50;;;25.14;39.06
37386;BME280;49448;50.040;9.052;2022-09-20T09:21:27;101084.50;;;25.29;39.01
37386;BME280;49448;50.040;9.052;2022-09-20T09:24:12;101088.34;;;25.25;39.02
37386;BME280;49448;50.040;9.052;2022-09-20T09:26:42;101087.25;;;25.11;39.29
37386;BME280;49448;50.040;9.052;2022-09-20T09:29:20;101088.16;;;25.28;39.16
37386;BME280;49448;50.040;9.052;2022-09-20T09:31:48;101088.34;;;25.25;39.37
37386;BME280;49448;50.040;9.052;2022-09-20T09:34:29;101089.75;;;25.32;39.12
37386;BME280;49448;50.040;9.052;2022-09-20T09:36:55;101083.41;;;25.15;39.23
37386;BME280;49448;50.040;9.052;2022-09-20T09:39:30;101082.75;;;25.28;38.95
37386;BME280;49448;50.040;9.052;2022-09-20T09:41:56;101080.44;;;25.20;39.20
37386;BME280;49448;50.040;9.052;2022-09-20T09:44:31;101080.84;;;25.30;39.02
37386;BME280;49448;50.040;9.052;2022-09-20T09:46:58;101074.50;;;25.13;39.45
37386;BME280;49448;50.040;9.052;2022-09-20T09:49:28;101083.00;;;25.23;39.30
37386;BME280;49448;50.040;9.052;2022-09-20T09:52:14;101080.13;;;25.26;39.13
37386;BME280;49448;50.040;9.052;2022-09-20T09:54:47;101080.13;;;25.26;38.99
37386;BME280;49448;50.040;9.052;2022-09-20T09:57:28;101083.72;;;25.27;39.11
37386;BME280;49448;50.040;9.052;2022-09-20T10:00:04;101081.19;;;25.24;39.34
37386;BME280;49448;50.040;9.052;2022-09-20T10:07:51;101081.28;;;25.05;39.72
37386;BME280;49448;50.040;9.052;2022-09-20T10:12:52;101078.16;;;25.30;39.18
37386;BME280;49448;50.040;9.052;2022-09-20T10:15:43;101078.28;;;25.27;39.16
37386;BME280;49448;50.040;9.052;2022-09-20T10:18:21;101073.78;;;25.10;39.48
37386;BME280;49448;50.040;9.052;2022-09-20T10:21:22;101066.31;;;25.31;39.19
37386;BME280;49448;50.040;9.052;2022-09-20T10:32:14;101068.66;;;25.21;39.37
37386;BME280;49448;50.040;9.052;2022-09-20T10:35:11;101067.16;;;25.15;39.21
37386;BME280;49448;50.040;9.052;2022-09-20T10:38:12;101062.81;;;25.13;39.57
37386;BME280;49448;50.040;9.052;2022-09-20T10:43:58;101060.03;;;25.14;39.37
37386;BME280;49448;50.040;9.052;2022-09-20T10:46:46;101060.78;;;25.16;39.37
37386;BME280;49448;50.040;9.052;2022-09-20T10:49:20;101060.34;;;25.08;39.44
37386;BME280;49448;50.040;9.052;2022-09-20T10:57:50;101053.16;;;25.25;39.42
37386;BME280;49448;50.040;9.052;2022-09-20T11:00:41;101054.44;;;25.17;39.44
37386;BME280;49448;50.040;9.052;2022-09-20T11:03:52;101050.84;;;25.17;39.55
37386;BME280;49448;50.040;9.052;2022-09-20T11:09:02;101049.53;;;25.08;39.52
37386;BME280;49448;50.040;9.052;2022-09-20T11:11:38;101049.34;;;25.11;39.40
37386;BME280;49448;50.040;9.052;2022-09-20T11:14:40;101045.97;;;25.24;39.32
37386;BME280;49448;50.040;9.052;2022-09-20T11:17:16;101044.28;;;25.21;39.33
37386;BME280;49448;50.040;9.052;2022-09-20T11:20:26;101050.25;;;25.28;39.07
37386;BME280;49448;50.040;9.052;2022-09-20T11:23:02;101043.59;;;25.17;39.43
37386;BME280;49448;50.040;9.052;2022-09-20T11:25:37;101043.41;;;25.20;39.50
37386;BME280;49448;50.040;9.052;2022-09-20T11:28:15;101049.19;;;25.30;39.15
37386;BME280;49448;50.040;9.052;2022-09-20T11:31:06;101048.69;;;25.24;39.47
37386;BME280;49448;50.040;9.052;2022-09-20T11:33:43;101049.38;;;25.27;39.11
37386;BME280;49448;50.040;9.052;2022-09-20T11:36:16;101048.06;;;25.18;39.17
37386;BME280;49448;50.040;9.052;2022-09-20T11:38:48;101052.69;;;25.16;39.31
37386;BME280;49448;50.040;9.052;2022-09-20T11:41:22;101051.03;;;25.14;39.70
37386;BME280;49448;50.040;9.052;2022-09-20T11:43:50;101050.47;;;25.07;39.50
37386;BME280;49448;50.040;9.052;2022-09-20T11:46:27;101050.19;;;25.29;39.24
37386;BME280;49448;50.040;9.052;2022-09-20T11:49:00;101047.81;;;25.23;39.27
37386;BME280;49448;50.040;9.052;2022-09-20T11:54:57;101041.34;;;25.26;39.08
37386;BME280;49448;50.040;9.052;2022-09-20T11:57:26;101042.78;;;25.15;39.44
37386;BME280;49448;50.040;9.052;2022-09-20T11:59:58;101039.44;;;25.28;38.97
37386;BME280;49448;50.040;9.052;2022-09-20T12:02:33;101034.66;;;25.15;39.25
37386;BME280;49448;50.040;9.052;2022-09-20T12:05:00;101039.81;;;25.04;39.74
37386;BME280;49448;50.040;9.052;2022-09-20T12:07:35;101039.38;;;25.12;39.72
37386;BME280;49448;50.040;9.052;2022-09-20T12:10:27;101040.72;;;25.20;39.23
37386;BME280;49448;50.040;9.052;2022-09-20T12:13:00;101030.56;;;25.08;39.55
37386;BME280;49448;50.040;9.052;2022-09-20T12:15:35;101036.59;;;25.13;39.37
37386;BME280;49448;50.040;9.052;2022-09-20T12:26:07;101045.19;;;25.21;39.37
37386;BME280;49448;50.040;9.052;2022-09-20T12:28:42;101044.41;;;25.19;39.52
37386;BME280;49448;50.040;9.052;2022-09-20T12:39:29;101044.09;;;25.08;39.59
37386;BME280;49448;50.040;9.052;2022-09-20T12:41:56;101043.22;;;25.08;39.58
37386;BME280;49448;50.040;9.052;2022-09-20T12:47:01;101038.72;;;25.24;39.52
37386;BME280;49448;50.040;9.052;2022-09-20T12:55:37;101027.53;;;25.30;39.14
37386;BME280;49448;50.040;9.052;2022-09-20T13:03:31;101016.69;;;25.30;39.03
37386;BME280;49448;50.040;9.052;2022-09-20T13:08:49;101016.00;;;25.27;39.28
37386;BME280;49448;50.040;9.052;2022-09-20T13:16:26;101010.22;;;25.17;39.42
37386;BME280;49448;50.040;9.052;2022-09-20T13:21:28;101015.19;;;25.09;39.33
37386;BME280;49448;50.040;9.052;2022-09-20T13:23:55;101013.53;;;25.06;39.67
37386;BME280;49448;50.040;9.052;2022-09-20T13:26:25;101008.13;;;25.22;39.33
37386;BME280;49448;50.040;9.052;2022-09-20T13:28:55;101010.78;;;25.24;39.31
37386;BME280;49448;50.040;9.052;2022-09-20T13:31:28;101012.69;;;25.21;39.25
37386;BME280;49448;50.040;9.052;2022-09-20T13:34:11;101019.34;;;25.32;39.09
37386;BME280;49448;50.040;9.052;2022-09-20T13:36:37;101013.19;;;25.12;39.39
37386;BME280;49448;50.040;9.052;2022-09-20T13:39:05;101006.25;;;25.24;39.34
37386;BME280;49448;50.040;9.052;2022-09-20T13:41:31;101012.31;;;25.12;39.31
37386;BME280;49448;50.040;9.052;2022-09-20T13:43:57;101020.19;;;25.16;39.18
37386;BME280;49448;50.040;9.052;2022-09-20T13:46:30;101011.22;;;25.32;38.89
37386;BME280;49448;50.040;9.052;2022-09-20T13:49:14;101020.22;;;25.32;39.10
37386;BME280;49448;50.040;9.052;2022-09-20T13:51:45;101021.75;;;25.20;39.26
37386;BME280;49448;50.040;9.052;2022-09-20T13:54:30;101016.09;;;25.41;38.91
37386;BME280;49448;50.040;9.052;2022-09-20T13:57:01;101016.38;;;25.36;38.96
37386;BME280;49448;50.040;9.052;2022-09-20T13:59:32;101014.97;;;25.29;39.03
37386;BME280;49448;50.040;9.052;2022-09-20T14:01:59;101016.34;;;25.20;39.23
37386;BME280;49448;50.040;9.052;2022-09-20T14:04:27;101008.69;;;25.29;38.92
37386;BME280;49448;50.040;9.052;2022-09-20T14:06:56;101016.97;;;25.26;38.88
37386;BME280;49448;50.040;9.052;2022-09-20T14:09:29;101016.78;;;25.13;39.17
37386;BME280;49448;50.040;9.052;2022-09-20T14:11:57;101009.09;;;25.21;38.89
37386;BME280;49448;50.040;9.052;2022-09-20T14:14:23;101015.31;;;25.23;39.15
37386;BME280;49448;50.040;9.052;2022-09-20T14:16:49;101014.44;;;25.23;39.18
37386;BME280;49448;50.040;9.052;2022-09-20T14:19:17;101007.81;;;25.28;39.22
37386;BME280;49448;50.040;9.052;2022-09-20T14:21:44;101007.44;;;25.18;39.01
37386;BME280;49448;50.040;9.052;2022-09-20T14:26:40;101014.44;;;25.23;38.43
37386;BME280;49448;50.040;9.052;2022-09-20T14:32:04;101013.38;;;25.25;38.44
37386;BME280;49448;50.040;9.052;2022-09-20T14:34:30;101014.84;;;25.15;38.78
37386;BME280;49448;50.040;9.052;2022-09-20T14:37:05;101010.59;;;25.27;38.42
37386;BME280;49448;50.040;9.052;2022-09-20T14:39:31;101009.59;;;25.12;38.75
37386;BME280;49448;50.040;9.052;2022-09-20T14:41:57;101001.22;;;25.16;38.66
37386;BME280;49448;50.040;9.052;2022-09-20T14:44:28;101010.91;;;25.20;39.07
37386;BME280;49448;50.040;9.052;2022-09-20T14:46:54;101008.09;;;25.06;39.24
37386;BME280;49448;50.040;9.052;2022-09-20T14:51:49;101009.88;;;25.07;38.78
37386;BME280;49448;50.040;9.052;2022-09-20T14:54:29;101005.69;;;25.17;38.72
37386;BME280;49448;50.040;9.052;2022-09-20T14:56:56;101005.69;;;25.17;38.58
37386;BME280;49448;50.040;9.052;2022-09-20T14:59:26;101007.25;;;25.21;38.66
37386;BME280;49448;50.040;9.052;2022-09-20T15:01:59;101000.28;;;25.17;39.15
37386;BME280;49448;50.040;9.052;2022-09-20T15:04:26;101004.63;;;25.04;39.14
37386;BME280;49448;50.040;9.052;2022-09-20T15:06:53;101009.88;;;25.07;39.12
37386;BME280;49448;50.040;9.052;2022-09-20T15:09:20;101009.94;;;25.06;38.96
37386;BME280;49448;50.040;9.052;2022-09-20T15:11:46;101006.34;;;25.05;38.93
37386;BME280;49448;50.040;9.052;2022-09-20T15:14:14;101007.66;;;24.98;39.52
37386;BME280;49448;50.040;9.052;2022-09-20T15:16:39;101004.78;;;25.01;39.00
37386;BME280;49448;50.040;9.052;2022-09-20T15:19:04;101007.66;;;24.98;39.20
37386;BME280;49448;50.040;9.052;2022-09-20T15:21:33;101008.81;;;24.94;39.44
37386;BME280;49448;50.040;9.052;2022-09-20T15:23:58;101007.66;;;24.98;39.18
37386;BME280;49448;50.040;9.052;2022-09-20T15:26:23;101010.53;;;24.95;39.81
37386;BME280;49448;50.040;9.052;2022-09-20T15:28:49;101009.75;;;24.93;39.54
37386;BME280;49448;50.040;9.052;2022-09-20T15:31:14;101011.50;;;24.94;39.46
37386;BME280;49448;50.040;9.052;2022-09-20T15:33:41;101013.47;;;24.91;39.35
37386;BME280;49448;50.040;9.052;2022-09-20T15:36:07;101014.28;;;24.93;39.57
37386;BME280;49448;50.040;9.052;2022-09-20T15:38:33;101010.53;;;24.95;39.55
37386;BME280;49448;50.040;9.052;2022-09-20T15:40:59;101009.69;;;24.95;39.38
37386;BME280;49448;50.040;9.052;2022-09-20T15:43:27;101007.50;;;24.84;39.44
37386;BME280;49448;50.040;9.052;2022-09-20T15:45:56;101008.81;;;24.94;39.42
37386;BME280;49448;50.040;9.052;2022-09-20T15:48:25;101012.78;;;24.87;39.30
37386;BME280;49448;50.040;9.052;2022-09-20T15:51:01;101007.19;;;24.90;39.60
37386;BME280;49448;50.040;9.052;2022-09-20T15:53:32;101010.38;;;24.98;39.51
37386;BME280;49448;50.040;9.052;2022-09-20T15:55:59;101016.03;;;24.94;39.24
37386;BME280;49448;50.040;9.052;2022-09-20T15:58:29;101015.94;;;24.95;39.43
37386;BME280;49448;50.040;9.052;2022-09-20T16:01:02;101014.66;;;25.02;39.45
37386;BME280;49448;50.040;9.052;2022-09-20T16:03:29;101017.88;;;24.93;39.47
37386;BME280;49448;50.040;9.052;2022-09-20T16:06:04;101016.16;;;25.08;39.27
37386;BME280;49448;50.040;9.052;2022-09-20T16:08:34;101019.88;;;25.05;39.24
37386;BME280;49448;50.040;9.052;2022-09-20T16:11:00;101021.53;;;24.92;39.50
37386;BME280;49448;50.040;9.052;2022-09-20T16:13:26;101022.97;;;24.99;39.45
37386;BME280;49448;50.040;9.052;2022-09-20T16:15:56;101025.84;;;25.12;39.39
37386;BME280;49448;50.040;9.052;2022-09-20T16:18:22;101029.31;;;24.98;39.72
37386;BME280;49448;50.040;9.052;2022-09-20T16:21:07;101028.81;;;25.07;39.25
37386;BME280;49448;50.040;9.052;2022-09-20T16:23:33;101034.47;;;25.03;39.47
37386;BME280;49448;50.040;9.052;2022-09-20T16:26:00;101037.25;;;25.01;39.49
37386;BME280;49448;50.040;9.052;2022-09-20T16:28:27;101046.34;;;25.00;39.15
37386;BME280;49448;50.040;9.052;2022-09-20T16:30:56;101058.28;;;25.13;39.10
37386;BME280;49448;50.040;9.052;2022-09-20T16:33:22;101072.69;;;24.97;39.54
37386;BME280;49448;50.040;9.052;2022-09-20T16:35:47;101067.03;;;25.01;39.46
37386;BME280;49448;50.040;9.052;2022-09-20T16:38:13;101053.50;;;25.01;39.32
37386;BME280;49448;50.040;9.052;2022-09-20T16:40:39;101058.91;;;25.01;39.45
37386;BME280;49448;50.040;9.052;2022-09-20T16:43:04;101058.78;;;25.04;39.45
37386;BME280;49448;50.040;9.052;2022-09-20T16:45:32;101066.03;;;25.04;39.55
37386;BME280;49448;50.040;9.052;2022-09-20T16:47:57;101066.41;;;24.96;39.71
37386;BME280;49448;50.040;9.052;2022-09-20T16:50:23;101066.41;;;24.96;39.58
37386;BME280;49448;50.040;9.052;2022-09-20T16:52:48;101072.00;;;24.93;39.47
37386;BME280;49448;50.040;9.052;2022-09-20T16:55:14;101072.69;;;24.97;39.58
37386;BME280;49448;50.040;9.052;2022-09-20T16:57:39;101074.63;;;24.95;39.40
37386;BME280;49448;50.040;9.052;2022-09-20T17:00:05;101069.84;;;25.00;39.50
37386;BME280;49448;50.040;9.052;2022-09-20T17:02:31;101064.91;;;24.91;39.63